sensor_id;sensor_type;location;lat;lon;timestamp;P1;durP1;ratioP1;P2;durP2;ratioP2
42770;SDS011;28426;42.872;25.314;2024-01-30T00:00:59;20.77;;;9.73;;
42770;SDS011;28426;42.872;25.314;2024-01-30T00:03:30;20.67;;;10.70;;
42770;SDS011;28426;42.872;25.314;2024-01-30T00:06:00;20.20;;;9.93;;
42770;SDS011;28426;42.872;25.314;2024-01-30T00:08:33;22.30;;;10.90;;
42770;SDS011;28426;42.872;25.314;2024-01-30T00:11:07;20.42;;;9.95;;
42770;SDS011;28426;42.872;25.314;2024-01-30T00:13:38;23.63;;;10.95;;
42770;SDS011;28426;42.872;25.314;2024-01-30T00:16:16;22.13;;;10.45;;
42770;SDS011;28426;42.872;25.314;2024-01-30T00:18:51;22.95;;;10.88;;
42770;SDS011;28426;42.872;25.314;2024-01-30T00:21:20;21.35;;;10.00;;
42770;SDS011;28426;42.872;25.314;2024-01-30T00:23:51;23.33;;;10.98;;
42770;SDS011;28426;42.872;25.314;2024-01-30T00:26:24;25.70;;;12.18;;
42770;SDS011;28426;42.872;25.314;2024-01-30T00:28:55;25.52;;;12.23;;
42770;SDS011;28426;42.872;25.314;2024-01-30T00:31:26;21.05;;;10.77;;
42770;SDS011;28426;42.872;25.314;2024-01-30T00:33:57;21.65;;;10.32;;
42770;SDS011;28426;42.872;25.314;2024-01-30T00:36:28;19.15;;;9.73;;
42770;SDS011;28426;42.872;25.314;2024-01-30T00:38:59;19.98;;;9.65;;
42770;SDS011;28426;42.872;25.314;2024-01-30T00:41:36;22.55;;;11.43;;
42770;SDS011;28426;42.872;25.314;2024-01-30T00:44:06;21.05;;;11.13;;
42770;SDS011;28426;42.872;25.314;2024-01-30T00:46:37;26.27;;;12.10;;
42770;SDS011;28426;42.872;25.314;2024-01-30T00:49:08;24.85;;;11.65;;
42770;SDS011;28426;42.872;25.314;2024-01-30T00:51:38;27.63;;;13.07;;
42770;SDS011;28426;42.872;25.314;2024-01-30T00:54:09;27.42;;;12.07;;
42770;SDS011;28426;42.872;25.314;2024-01-30T00:56:43;28.13;;;12.98;;
42770;SDS011;28426;42.872;25.314;2024-01-30T00:59:14;23.92;;;11.50;;
42770;SDS011;28426;42.872;25.314;2024-01-30T01:01:44;23.17;;;12.65;;
42770;SDS011;28426;42.872;25.314;2024-01-30T01:04:15;20.83;;;10.95;;
42770;SDS011;28426;42.872;25.314;2024-01-30T01:06:48;20.85;;;11.32;;
42770;SDS011;28426;42.872;25.314;2024-01-30T01:09:20;20.38;;;10.75;;
42770;SDS011;28426;42.872;25.314;2024-01-30T01:11:53;22.63;;;11.32;;
42770;SDS011;28426;42.872;25.314;2024-01-30T01:14:24;21.42;;;11.25;;
42770;SDS011;28426;42.872;25.314;2024-01-30T01:16:55;22.58;;;10.35;;
42770;SDS011;28426;42.872;25.314;2024-01-30T01:19:26;22.55;;;11.07;;
42770;SDS011;28426;42.872;25.314;2024-01-30T01:21:57;21.75;;;11.63;;
42770;SDS011;28426;42.872;25.314;2024-01-30T01:24:28;22.08;;;11.95;;
42770;SDS011;28426;42.872;25.314;2024-01-30T01:27:02;22.70;;;12.02;;
42770;SDS011;28426;42.872;25.314;2024-01-30T01:29:33;25.33;;;12.57;;
42770;SDS011;28426;42.872;25.314;2024-01-30T01:32:05;23.48;;;12.82;;
42770;SDS011;28426;42.872;25.314;2024-01-30T01:34:36;23.02;;;12.73;;
42770;SDS011;28426;42.872;25.314;2024-01-30T01:37:07;25.20;;;12.60;;
42770;SDS011;28426;42.872;25.314;2024-01-30T01:39:38;27.92;;;14.32;;
42770;SDS011;28426;42.872;25.314;2024-01-30T01:42:11;26.90;;;14.65;;
42770;SDS011;28426;42.872;25.314;2024-01-30T01:44:42;23.77;;;12.50;;
42770;SDS011;28426;42.872;25.314;2024-01-30T01:47:13;26.33;;;12.07;;
42770;SDS011;28426;42.872;25.314;2024-01-30T01:49:44;24.92;;;12.10;;
42770;SDS011;28426;42.872;25.314;2024-01-30T01:52:15;25.25;;;13.00;;
42770;SDS011;28426;42.872;25.314;2024-01-30T01:54:47;26.88;;;12.93;;
42770;SDS011;28426;42.872;25.314;2024-01-30T01:57:21;33.88;;;14.63;;
42770;SDS011;28426;42.872;25.314;2024-01-30T01:59:52;26.08;;;13.05;;
42770;SDS011;28426;42.872;25.314;2024-01-30T02:02:23;23.05;;;12.45;;
42770;SDS011;28426;42.872;25.314;2024-01-30T02:04:59;23.45;;;12.15;;
42770;SDS011;28426;42.872;25.314;2024-01-30T02:07:31;24.02;;;12.50;;
42770;SDS011;28426;42.872;25.314;2024-01-30T02:10:02;26.83;;;13.43;;
42770;SDS011;28426;42.872;25.314;2024-01-30T02:12:36;31.17;;;14.95;;
42770;SDS011;28426;42.872;25.314;2024-01-30T02:15:08;24.02;;;13.18;;
42770;SDS011;28426;42.872;25.314;2024-01-30T02:17:42;25.67;;;13.40;;
42770;SDS011;28426;42.872;25.314;2024-01-30T02:20:12;27.35;;;13.77;;
42770;SDS011;28426;42.872;25.314;2024-01-30T02:22:46;22.23;;;12.18;;
42770;SDS011;28426;42.872;25.314;2024-01-30T02:25:18;23.70;;;13.17;;
42770;SDS011;28426;42.872;25.314;2024-01-30T02:27:50;27.23;;;12.68;;
42770;SDS011;28426;42.872;25.314;2024-01-30T02:30:20;26.65;;;13.77;;
42770;SDS011;28426;42.872;25.314;2024-01-30T02:32:51;26.63;;;12.88;;
42770;SDS011;28426;42.872;25.314;2024-01-30T02:35:22;24.35;;;12.77;;
42770;SDS011;28426;42.872;25.314;2024-01-30T02:37:56;22.45;;;11.35;;
42770;SDS011;28426;42.872;25.314;2024-01-30T02:40:27;24.17;;;12.70;;
42770;SDS011;28426;42.872;25.314;2024-01-30T02:42:58;23.88;;;12.13;;
42770;SDS011;28426;42.872;25.314;2024-01-30T02:45:30;22.67;;;11.45;;
42770;SDS011;28426;42.872;25.314;2024-01-30T02:48:01;25.58;;;13.10;;
42770;SDS011;28426;42.872;25.314;2024-01-30T02:50:32;25.67;;;12.70;;
42770;SDS011;28426;42.872;25.314;2024-01-30T02:53:05;23.92;;;12.77;;
42770;SDS011;28426;42.872;25.314;2024-01-30T02:55:36;24.42;;;12.40;;
42770;SDS011;28426;42.872;25.314;2024-01-30T02:58:07;26.35;;;12.35;;
42770;SDS011;28426;42.872;25.314;2024-01-30T03:00:38;23.33;;;12.10;;
42770;SDS011;28426;42.872;25.314;2024-01-30T03:03:09;22.65;;;11.38;;
42770;SDS011;28426;42.872;25.314;2024-01-30T03:05:39;22.48;;;11.73;;
42770;SDS011;28426;42.872;25.314;2024-01-30T03:08:13;23.88;;;11.73;;
42770;SDS011;28426;42.872;25.314;2024-01-30T03:10:44;25.45;;;12.10;;
42770;SDS011;28426;42.872;25.314;2024-01-30T03:13:15;21.50;;;11.30;;
42770;SDS011;28426;42.872;25.314;2024-01-30T03:15:46;26.35;;;12.38;;
42770;SDS011;28426;42.872;25.314;2024-01-30T03:18:16;23.73;;;11.93;;
42770;SDS011;28426;42.872;25.314;2024-01-30T03:20:48;25.10;;;12.93;;
42770;SDS011;28426;42.872;25.314;2024-01-30T03:23:21;25.63;;;13.05;;
42770;SDS011;28426;42.872;25.314;2024-01-30T03:25:52;25.65;;;12.98;;
42770;SDS011;28426;42.872;25.314;2024-01-30T03:28:23;24.77;;;13.15;;
42770;SDS011;28426;42.872;25.314;2024-01-30T03:30:54;25.13;;;12.40;;
42770;SDS011;28426;42.872;25.314;2024-01-30T03:33:25;28.00;;;12.88;;
42770;SDS011;28426;42.872;25.314;2024-01-30T03:35:55;27.65;;;13.55;;
42770;SDS011;28426;42.872;25.314;2024-01-30T03:38:29;25.63;;;13.15;;
42770;SDS011;28426;42.872;25.314;2024-01-30T03:41:00;25.80;;;12.93;;
42770;SDS011;28426;42.872;25.314;2024-01-30T03:43:31;28.13;;;14.05;;
42770;SDS011;28426;42.872;25.314;2024-01-30T03:46:02;27.90;;;13.40;;
42770;SDS011;28426;42.872;25.314;2024-01-30T03:48:33;29.73;;;14.73;;
42770;SDS011;28426;42.872;25.314;2024-01-30T03:51:04;28.38;;;14.23;;
42770;SDS011;28426;42.872;25.314;2024-01-30T03:53:37;30.15;;;15.02;;
42770;SDS011;28426;42.872;25.314;2024-01-30T03:56:08;33.33;;;16.25;;
42770;SDS011;28426;42.872;25.314;2024-01-30T03:58:40;30.73;;;14.95;;
42770;SDS011;28426;42.872;25.314;2024-01-30T04:01:13;27.33;;;13.98;;
42770;SDS011;28426;42.872;25.314;2024-01-30T04:03:44;29.95;;;14.57;;
42770;SDS011;28426;42.872;25.314;2024-01-30T04:06:15;30.95;;;15.43;;
42770;SDS011;28426;42.872;25.314;2024-01-30T04:08:48;32.38;;;15.13;;
42770;SDS011;28426;42.872;25.314;2024-01-30T04:11:19;30.83;;;15.75;;
42770;SDS011;28426;42.872;25.314;2024-01-30T04:13:50;31.10;;;15.38;;
42770;SDS011;28426;42.872;25.314;2024-01-30T04:16:21;33.83;;;15.82;;
42770;SDS011;28426;42.872;25.314;2024-01-30T04:18:52;33.17;;;15.27;;
42770;SDS011;28426;42.872;25.314;2024-01-30T04:21:23;31.17;;;16.08;;
42770;SDS011;28426;42.872;25.314;2024-01-30T04:23:56;34.55;;;15.25;;
42770;SDS011;28426;42.872;25.314;2024-01-30T04:26:27;31.10;;;14.85;;
42770;SDS011;28426;42.872;25.314;2024-01-30T04:28:58;31.65;;;17.33;;
42770;SDS011;28426;42.872;25.314;2024-01-30T04:31:29;28.42;;;15.25;;
42770;SDS011;28426;42.872;25.314;2024-01-30T04:34:00;28.70;;;14.25;;
42770;SDS011;28426;42.872;25.314;2024-01-30T04:36:31;29.50;;;15.02;;
42770;SDS011;28426;42.872;25.314;2024-01-30T04:39:04;29.35;;;15.52;;
42770;SDS011;28426;42.872;25.314;2024-01-30T04:41:37;32.35;;;16.15;;
42770;SDS011;28426;42.872;25.314;2024-01-30T04:44:07;35.50;;;16.58;;
42770;SDS011;28426;42.872;25.314;2024-01-30T04:46:38;29.50;;;14.57;;
42770;SDS011;28426;42.872;25.314;2024-01-30T04:49:10;29.42;;;15.25;;
42770;SDS011;28426;42.872;25.314;2024-01-30T04:51:41;30.30;;;14.80;;
42770;SDS011;28426;42.872;25.314;2024-01-30T04:54:15;27.05;;;13.43;;
42770;SDS011;28426;42.872;25.314;2024-01-30T04:56:45;30.45;;;15.90;;
42770;SDS011;28426;42.872;25.314;2024-01-30T04:59:16;33.58;;;17.48;;
42770;SDS011;28426;42.872;25.314;2024-01-30T05:01:48;33.35;;;16.60;;
42770;SDS011;28426;42.872;25.314;2024-01-30T05:04:19;29.55;;;15.48;;
42770;SDS011;28426;42.872;25.314;2024-01-30T05:06:50;30.60;;;14.65;;
42770;SDS011;28426;42.872;25.314;2024-01-30T05:09:23;27.40;;;14.27;;
42770;SDS011;28426;42.872;25.314;2024-01-30T05:11:54;26.55;;;14.05;;
42770;SDS011;28426;42.872;25.314;2024-01-30T05:14:25;30.30;;;14.77;;
42770;SDS011;28426;42.872;25.314;2024-01-30T05:16:56;32.85;;;16.08;;
42770;SDS011;28426;42.872;25.314;2024-01-30T05:19:27;29.48;;;15.90;;
42770;SDS011;28426;42.872;25.314;2024-01-30T05:21:58;32.90;;;16.48;;
42770;SDS011;28426;42.872;25.314;2024-01-30T05:24:31;33.42;;;16.75;;
42770;SDS011;28426;42.872;25.314;2024-01-30T05:27:02;33.83;;;16.23;;
42770;SDS011;28426;42.872;25.314;2024-01-30T05:29:33;28.80;;;14.73;;
42770;SDS011;28426;42.872;25.314;2024-01-30T05:32:04;29.60;;;16.73;;
42770;SDS011;28426;42.872;25.314;2024-01-30T05:34:36;38.58;;;16.23;;
42770;SDS011;28426;42.872;25.314;2024-01-30T05:37:06;41.03;;;16.52;;
42770;SDS011;28426;42.872;25.314;2024-01-30T05:39:44;37.17;;;16.85;;
42770;SDS011;28426;42.872;25.314;2024-01-30T05:42:15;30.88;;;15.23;;
42770;SDS011;28426;42.872;25.314;2024-01-30T05:44:45;28.60;;;13.15;;
42770;SDS011;28426;42.872;25.314;2024-01-30T05:47:16;28.90;;;14.27;;
42770;SDS011;28426;42.872;25.314;2024-01-30T05:49:47;23.83;;;12.57;;
42770;SDS011;28426;42.872;25.314;2024-01-30T05:52:17;29.92;;;13.82;;
42770;SDS011;28426;42.872;25.314;2024-01-30T05:54:51;34.10;;;14.75;;
42770;SDS011;28426;42.872;25.314;2024-01-30T05:57:22;26.65;;;13.05;;
42770;SDS011;28426;42.872;25.314;2024-01-30T05:59:53;32.90;;;13.98;;
42770;SDS011;28426;42.872;25.314;2024-01-30T06:02:24;27.95;;;13.35;;
42770;SDS011;28426;42.872;25.314;2024-01-30T06:04:54;26.80;;;13.23;;
42770;SDS011;28426;42.872;25.314;2024-01-30T06:07:25;22.58;;;12.63;;
42770;SDS011;28426;42.872;25.314;2024-01-30T06:10:05;29.30;;;13.55;;
42770;SDS011;28426;42.872;25.314;2024-01-30T06:12:37;30.52;;;12.80;;
42770;SDS011;28426;42.872;25.314;2024-01-30T06:15:08;31.83;;;12.23;;
42770;SDS011;28426;42.872;25.314;2024-01-30T06:17:40;29.95;;;12.13;;
42770;SDS011;28426;42.872;25.314;2024-01-30T06:20:10;24.10;;;12.57;;
42770;SDS011;28426;42.872;25.314;2024-01-30T06:22:41;27.70;;;12.18;;
42770;SDS011;28426;42.872;25.314;2024-01-30T06:25:15;23.00;;;11.63;;
42770;SDS011;28426;42.872;25.314;2024-01-30T06:27:46;29.58;;;12.80;;
42770;SDS011;28426;42.872;25.314;2024-01-30T06:30:17;27.02;;;12.60;;
42770;SDS011;28426;42.872;25.314;2024-01-30T06:32:48;25.77;;;11.05;;
42770;SDS011;28426;42.872;25.314;2024-01-30T06:35:19;23.27;;;11.85;;
42770;SDS011;28426;42.872;25.314;2024-01-30T06:37:52;31.17;;;12.63;;
42770;SDS011;28426;42.872;25.314;2024-01-30T06:40:26;25.85;;;10.65;;
42770;SDS011;28426;42.872;25.314;2024-01-30T06:42:57;28.25;;;13.50;;
42770;SDS011;28426;42.872;25.314;2024-01-30T06:45:28;24.63;;;12.18;;
42770;SDS011;28426;42.872;25.314;2024-01-30T06:47:58;31.23;;;12.43;;
42770;SDS011;28426;42.872;25.314;2024-01-30T06:50:29;29.35;;;10.70;;
42770;SDS011;28426;42.872;25.314;2024-01-30T06:53:00;26.35;;;12.30;;
42770;SDS011;28426;42.872;25.314;2024-01-30T06:55:33;33.85;;;12.30;;
42770;SDS011;28426;42.872;25.314;2024-01-30T06:58:04;21.38;;;10.93;;
42770;SDS011;28426;42.872;25.314;2024-01-30T07:00:35;29.10;;;12.20;;
42770;SDS011;28426;42.872;25.314;2024-01-30T07:03:06;28.92;;;11.63;;
42770;SDS011;28426;42.872;25.314;2024-01-30T07:05:37;26.00;;;12.52;;
42770;SDS011;28426;42.872;25.314;2024-01-30T07:08:07;26.02;;;11.30;;
42770;SDS011;28426;42.872;25.314;2024-01-30T07:10:41;24.67;;;12.55;;
42770;SDS011;28426;42.872;25.314;2024-01-30T07:13:12;24.83;;;12.93;;
42770;SDS011;28426;42.872;25.314;2024-01-30T07:15:43;25.02;;;12.55;;
42770;SDS011;28426;42.872;25.314;2024-01-30T07:18:14;24.48;;;12.57;;
42770;SDS011;28426;42.872;25.314;2024-01-30T07:20:45;27.02;;;11.93;;
42770;SDS011;28426;42.872;25.314;2024-01-30T07:23:16;26.38;;;12.93;;
42770;SDS011;28426;42.872;25.314;2024-01-30T07:25:50;27.05;;;13.20;;
42770;SDS011;28426;42.872;25.314;2024-01-30T07:28:21;22.77;;;11.85;;
42770;SDS011;28426;42.872;25.314;2024-01-30T07:30:51;23.70;;;12.55;;
42770;SDS011;28426;42.872;25.314;2024-01-30T07:33:22;24.23;;;12.55;;
42770;SDS011;28426;42.872;25.314;2024-01-30T07:35:53;25.02;;;12.95;;
42770;SDS011;28426;42.872;25.314;2024-01-30T07:38:24;23.88;;;11.65;;
42770;SDS011;28426;42.872;25.314;2024-01-30T07:40:58;26.40;;;13.23;;
42770;SDS011;28426;42.872;25.314;2024-01-30T07:43:29;30.67;;;15.48;;
42770;SDS011;28426;42.872;25.314;2024-01-30T07:46:03;34.63;;;13.00;;
42770;SDS011;28426;42.872;25.314;2024-01-30T07:48:34;24.73;;;13.30;;
42770;SDS011;28426;42.872;25.314;2024-01-30T07:51:05;23.65;;;12.13;;
42770;SDS011;28426;42.872;25.314;2024-01-30T07:53:36;23.05;;;10.50;;
42770;SDS011;28426;42.872;25.314;2024-01-30T07:56:12;25.77;;;10.38;;
42770;SDS011;28426;42.872;25.314;2024-01-30T07:58:43;20.50;;;10.27;;
42770;SDS011;28426;42.872;25.314;2024-01-30T08:01:14;21.23;;;10.55;;
42770;SDS011;28426;42.872;25.314;2024-01-30T08:03:45;19.75;;;9.63;;
42770;SDS011;28426;42.872;25.314;2024-01-30T08:06:16;34.45;;;12.30;;
42770;SDS011;28426;42.872;25.314;2024-01-30T08:08:47;26.13;;;11.70;;
42770;SDS011;28426;42.872;25.314;2024-01-30T08:11:23;22.05;;;11.43;;
42770;SDS011;28426;42.872;25.314;2024-01-30T08:13:54;20.27;;;10.85;;
42770;SDS011;28426;42.872;25.314;2024-01-30T08:16:25;24.35;;;10.13;;
42770;SDS011;28426;42.872;25.314;2024-01-30T08:18:56;23.42;;;12.70;;
42770;SDS011;28426;42.872;25.314;2024-01-30T08:21:28;24.05;;;11.70;;
42770;SDS011;28426;42.872;25.314;2024-01-30T08:24:06;28.88;;;11.93;;
42770;SDS011;28426;42.872;25.314;2024-01-30T08:26:40;23.02;;;11.20;;
42770;SDS011;28426;42.872;25.314;2024-01-30T08:29:11;22.95;;;10.32;;
42770;SDS011;28426;42.872;25.314;2024-01-30T08:31:42;21.58;;;9.82;;
42770;SDS011;28426;42.872;25.314;2024-01-30T08:34:13;20.17;;;9.98;;
42770;SDS011;28426;42.872;25.314;2024-01-30T08:36:44;22.45;;;10.80;;
42770;SDS011;28426;42.872;25.314;2024-01-30T08:39:15;39.40;;;11.63;;
42770;SDS011;28426;42.872;25.314;2024-01-30T08:41:49;34.72;;;10.45;;
42770;SDS011;28426;42.872;25.314;2024-01-30T08:44:19;26.00;;;12.93;;
42770;SDS011;28426;42.872;25.314;2024-01-30T08:46:50;19.30;;;10.38;;
42770;SDS011;28426;42.872;25.314;2024-01-30T08:49:23;44.03;;;13.00;;
42770;SDS011;28426;42.872;25.314;2024-01-30T08:51:54;24.10;;;11.15;;
42770;SDS011;28426;42.872;25.314;2024-01-30T08:54:25;21.52;;;11.43;;
42770;SDS011;28426;42.872;25.314;2024-01-30T08:56:58;24.83;;;12.40;;
42770;SDS011;28426;42.872;25.314;2024-01-30T08:59:29;18.13;;;9.45;;
42770;SDS011;28426;42.872;25.314;2024-01-30T09:02:00;24.02;;;11.00;;
42770;SDS011;28426;42.872;25.314;2024-01-30T09:04:39;26.10;;;12.68;;
42770;SDS011;28426;42.872;25.314;2024-01-30T09:07:10;21.35;;;10.75;;
42770;SDS011;28426;42.872;25.314;2024-01-30T09:09:41;27.42;;;11.00;;
42770;SDS011;28426;42.872;25.314;2024-01-30T09:12:15;27.73;;;11.50;;
42770;SDS011;28426;42.872;25.314;2024-01-30T09:14:45;26.88;;;12.88;;
42770;SDS011;28426;42.872;25.314;2024-01-30T09:17:16;26.40;;;12.32;;
42770;SDS011;28426;42.872;25.314;2024-01-30T09:19:47;22.10;;;10.77;;
42770;SDS011;28426;42.872;25.314;2024-01-30T09:22:18;23.70;;;10.63;;
42770;SDS011;28426;42.872;25.314;2024-01-30T09:24:49;26.55;;;11.95;;
42770;SDS011;28426;42.872;25.314;2024-01-30T09:27:22;25.98;;;12.55;;
42770;SDS011;28426;42.872;25.314;2024-01-30T09:29:53;22.80;;;12.20;;
42770;SDS011;28426;42.872;25.314;2024-01-30T09:32:24;25.35;;;11.45;;
42770;SDS011;28426;42.872;25.314;2024-01-30T09:34:55;24.10;;;10.60;;
42770;SDS011;28426;42.872;25.314;2024-01-30T09:37:26;21.02;;;10.43;;
42770;SDS011;28426;42.872;25.314;2024-01-30T09:39:56;19.92;;;11.10;;
42770;SDS011;28426;42.872;25.314;2024-01-30T09:42:34;20.02;;;10.82;;
42770;SDS011;28426;42.872;25.314;2024-01-30T09:45:06;27.17;;;12.18;;
42770;SDS011;28426;42.872;25.314;2024-01-30T09:47:39;20.52;;;10.48;;
42770;SDS011;28426;42.872;25.314;2024-01-30T09:50:12;22.10;;;10.18;;
42770;SDS011;28426;42.872;25.314;2024-01-30T09:52:44;23.75;;;11.90;;
42770;SDS011;28426;42.872;25.314;2024-01-30T09:55:15;24.83;;;11.20;;
42770;SDS011;28426;42.872;25.314;2024-01-30T09:57:49;22.88;;;10.48;;
42770;SDS011;28426;42.872;25.314;2024-01-30T10:00:20;19.95;;;10.55;;
42770;SDS011;28426;42.872;25.314;2024-01-30T10:02:55;22.58;;;11.60;;
42770;SDS011;28426;42.872;25.314;2024-01-30T10:05:27;35.28;;;12.10;;
42770;SDS011;28426;42.872;25.314;2024-01-30T10:08:01;32.72;;;12.77;;
42770;SDS011;28426;42.872;25.314;2024-01-30T10:10:35;22.77;;;11.60;;
42770;SDS011;28426;42.872;25.314;2024-01-30T10:13:09;23.60;;;10.35;;
42770;SDS011;28426;42.872;25.314;2024-01-30T10:15:41;26.63;;;11.57;;
42770;SDS011;28426;42.872;25.314;2024-01-30T10:18:12;23.80;;;9.90;;
42770;SDS011;28426;42.872;25.314;2024-01-30T10:20:43;24.02;;;10.85;;
42770;SDS011;28426;42.872;25.314;2024-01-30T10:23:14;21.80;;;11.18;;
42770;SDS011;28426;42.872;25.314;2024-01-30T10:25:45;26.30;;;11.05;;
42770;SDS011;28426;42.872;25.314;2024-01-30T10:28:19;22.20;;;9.38;;
42770;SDS011;28426;42.872;25.314;2024-01-30T10:30:57;19.83;;;9.57;;
42770;SDS011;28426;42.872;25.314;2024-01-30T10:33:33;26.40;;;11.60;;
42770;SDS011;28426;42.872;25.314;2024-01-30T10:36:04;21.48;;;11.10;;
42770;SDS011;28426;42.872;25.314;2024-01-30T10:38:36;32.13;;;12.27;;
42770;SDS011;28426;42.872;25.314;2024-01-30T10:41:07;25.75;;;11.10;;
42770;SDS011;28426;42.872;25.314;2024-01-30T10:43:45;20.05;;;10.45;;
42770;SDS011;28426;42.872;25.314;2024-01-30T10:46:29;21.77;;;11.18;;
42770;SDS011;28426;42.872;25.314;2024-01-30T10:49:02;22.70;;;11.05;;
42770;SDS011;28426;42.872;25.314;2024-01-30T10:51:34;22.58;;;11.07;;
42770;SDS011;28426;42.872;25.314;2024-01-30T10:54:08;25.40;;;11.05;;
42770;SDS011;28426;42.872;25.314;2024-01-30T10:56:40;20.77;;;10.73;;
42770;SDS011;28426;42.872;25.314;2024-01-30T10:59:15;23.30;;;10.77;;
42770;SDS011;28426;42.872;25.314;2024-01-30T11:01:46;23.40;;;11.30;;
42770;SDS011;28426;42.872;25.314;2024-01-30T11:04:18;24.75;;;10.80;;
42770;SDS011;28426;42.872;25.314;2024-01-30T11:06:49;22.52;;;10.77;;
42770;SDS011;28426;42.872;25.314;2024-01-30T11:09:21;21.00;;;8.82;;
42770;SDS011;28426;42.872;25.314;2024-01-30T11:11:55;17.42;;;8.57;;
42770;SDS011;28426;42.872;25.314;2024-01-30T11:14:31;16.27;;;8.65;;
42770;SDS011;28426;42.872;25.314;2024-01-30T11:17:02;21.88;;;7.20;;
42770;SDS011;28426;42.872;25.314;2024-01-30T11:19:34;16.58;;;8.18;;
42770;SDS011;28426;42.872;25.314;2024-01-30T11:22:06;18.10;;;8.77;;
42770;SDS011;28426;42.872;25.314;2024-01-30T11:24:39;13.75;;;7.07;;
42770;SDS011;28426;42.872;25.314;2024-01-30T11:27:11;12.65;;;7.18;;
42770;SDS011;28426;42.872;25.314;2024-01-30T11:29:49;11.90;;;6.80;;
42770;SDS011;28426;42.872;25.314;2024-01-30T11:32:22;16.80;;;7.35;;
42770;SDS011;28426;42.872;25.314;2024-01-30T11:34:53;20.70;;;7.47;;
42770;SDS011;28426;42.872;25.314;2024-01-30T11:37:25;12.38;;;6.13;;
42770;SDS011;28426;42.872;25.314;2024-01-30T11:39:57;13.20;;;7.15;;
42770;SDS011;28426;42.872;25.314;2024-01-30T11:42:30;14.52;;;8.05;;
42770;SDS011;28426;42.872;25.314;2024-01-30T11:45:05;17.63;;;7.50;;
42770;SDS011;28426;42.872;25.314;2024-01-30T11:47:36;16.35;;;7.88;;
42770;SDS011;28426;42.872;25.314;2024-01-30T11:50:10;15.35;;;6.38;;
42770;SDS011;28426;42.872;25.314;2024-01-30T11:52:42;17.85;;;7.88;;
42770;SDS011;28426;42.872;25.314;2024-01-30T11:55:13;13.02;;;6.07;;
42770;SDS011;28426;42.872;25.314;2024-01-30T11:57:45;20.10;;;7.25;;
42770;SDS011;28426;42.872;25.314;2024-01-30T12:00:18;13.63;;;6.47;;
42770;SDS011;28426;42.872;25.314;2024-01-30T12:02:49;37.92;;;8.57;;
42770;SDS011;28426;42.872;25.314;2024-01-30T12:05:23;14.20;;;7.00;;
42770;SDS011;28426;42.872;25.314;2024-01-30T12:07:55;14.57;;;7.47;;
42770;SDS011;28426;42.872;25.314;2024-01-30T12:10:28;15.40;;;7.45;;
42770;SDS011;28426;42.872;25.314;2024-01-30T12:13:00;13.63;;;6.50;;
42770;SDS011;28426;42.872;25.314;2024-01-30T12:15:34;19.58;;;7.20;;
42770;SDS011;28426;42.872;25.314;2024-01-30T12:18:06;12.60;;;6.00;;
42770;SDS011;28426;42.872;25.314;2024-01-30T12:20:38;19.45;;;7.07;;
42770;SDS011;28426;42.872;25.314;2024-01-30T12:23:08;17.38;;;6.45;;
42770;SDS011;28426;42.872;25.314;2024-01-30T12:25:39;12.38;;;6.13;;
42770;SDS011;28426;42.872;25.314;2024-01-30T12:28:10;14.20;;;5.72;;
42770;SDS011;28426;42.872;25.314;2024-01-30T12:30:45;16.08;;;9.00;;
42770;SDS011;28426;42.872;25.314;2024-01-30T12:33:16;20.65;;;9.10;;
42770;SDS011;28426;42.872;25.314;2024-01-30T12:35:48;15.80;;;7.43;;
42770;SDS011;28426;42.872;25.314;2024-01-30T12:38:29;18.27;;;9.15;;
42770;SDS011;28426;42.872;25.314;2024-01-30T12:41:00;15.00;;;7.70;;
42770;SDS011;28426;42.872;25.314;2024-01-30T12:43:31;16.67;;;8.98;;
42770;SDS011;28426;42.872;25.314;2024-01-30T12:46:08;13.20;;;6.97;;
42770;SDS011;28426;42.872;25.314;2024-01-30T12:48:38;25.42;;;7.57;;
42770;SDS011;28426;42.872;25.314;2024-01-30T12:51:09;13.35;;;6.70;;
42770;SDS011;28426;42.872;25.314;2024-01-30T12:53:40;13.50;;;6.68;;
42770;SDS011;28426;42.872;25.314;2024-01-30T12:56:11;12.55;;;5.10;;
42770;SDS011;28426;42.872;25.314;2024-01-30T12:58:42;14.70;;;6.85;;
42770;SDS011;28426;42.872;25.314;2024-01-30T13:01:20;15.70;;;6.53;;
42770;SDS011;28426;42.872;25.314;2024-01-30T13:03:52;13.82;;;5.93;;
42770;SDS011;28426;42.872;25.314;2024-01-30T13:06:24;9.60;;;5.22;;
42770;SDS011;28426;42.872;25.314;2024-01-30T13:08:55;15.65;;;9.05;;
42770;SDS011;28426;42.872;25.314;2024-01-30T13:11:26;14.80;;;6.30;;
42770;SDS011;28426;42.872;25.314;2024-01-30T13:13:57;26.15;;;8.60;;
42770;SDS011;28426;42.872;25.314;2024-01-30T13:16:30;17.30;;;8.73;;
42770;SDS011;28426;42.872;25.314;2024-01-30T13:19:01;15.13;;;7.00;;
42770;SDS011;28426;42.872;25.314;2024-01-30T13:21:32;22.50;;;9.88;;
42770;SDS011;28426;42.872;25.314;2024-01-30T13:24:03;21.15;;;9.85;;
42770;SDS011;28426;42.872;25.314;2024-01-30T13:26:34;31.27;;;14.77;;
42770;SDS011;28426;42.872;25.314;2024-01-30T13:29:05;25.30;;;10.60;;
42770;SDS011;28426;42.872;25.314;2024-01-30T13:31:39;30.48;;;15.57;;
42770;SDS011;28426;42.872;25.314;2024-01-30T13:34:11;16.50;;;8.57;;
42770;SDS011;28426;42.872;25.314;2024-01-30T13:36:42;15.13;;;8.95;;
42770;SDS011;28426;42.872;25.314;2024-01-30T13:39:13;15.50;;;7.88;;
42770;SDS011;28426;42.872;25.314;2024-01-30T13:41:47;15.50;;;7.40;;
42770;SDS011;28426;42.872;25.314;2024-01-30T13:44:18;19.95;;;7.00;;
42770;SDS011;28426;42.872;25.314;2024-01-30T13:46:51;15.90;;;7.45;;
42770;SDS011;28426;42.872;25.314;2024-01-30T13:49:22;18.45;;;8.05;;
42770;SDS011;28426;42.872;25.314;2024-01-30T13:51:53;15.80;;;8.13;;
42770;SDS011;28426;42.872;25.314;2024-01-30T13:54:26;20.02;;;9.52;;
42770;SDS011;28426;42.872;25.314;2024-01-30T13:56:57;17.90;;;8.95;;
42770;SDS011;28426;42.872;25.314;2024-01-30T13:59:28;15.30;;;9.00;;
42770;SDS011;28426;42.872;25.314;2024-01-30T14:02:02;17.25;;;9.45;;
42770;SDS011;28426;42.872;25.314;2024-01-30T14:04:35;17.38;;;9.20;;
42770;SDS011;28426;42.872;25.314;2024-01-30T14:07:07;20.98;;;7.05;;
42770;SDS011;28426;42.872;25.314;2024-01-30T14:09:38;14.68;;;6.60;;
42770;SDS011;28426;42.872;25.314;2024-01-30T14:12:09;17.83;;;7.18;;
42770;SDS011;28426;42.872;25.314;2024-01-30T14:14:40;19.90;;;9.30;;
42770;SDS011;28426;42.872;25.314;2024-01-30T14:17:13;26.30;;;8.30;;
42770;SDS011;28426;42.872;25.314;2024-01-30T14:19:44;15.07;;;7.15;;
42770;SDS011;28426;42.872;25.314;2024-01-30T14:22:15;14.43;;;8.02;;
42770;SDS011;28426;42.872;25.314;2024-01-30T14:24:46;19.63;;;7.72;;
42770;SDS011;28426;42.872;25.314;2024-01-30T14:27:17;16.83;;;7.38;;
42770;SDS011;28426;42.872;25.314;2024-01-30T14:29:48;14.65;;;8.20;;
42770;SDS011;28426;42.872;25.314;2024-01-30T14:32:21;24.23;;;10.35;;
42770;SDS011;28426;42.872;25.314;2024-01-30T14:34:52;19.15;;;9.27;;
42770;SDS011;28426;42.872;25.314;2024-01-30T14:37:23;20.85;;;9.82;;